createdAt,value
2018-05-12T00:00:53.205Z,7.43
2018-05-12T00:03:20.384Z,7.40
2018-05-12T00:05:46.854Z,7.13
2018-05-12T00:08:13.386Z,8.07
2018-05-12T00:10:39.742Z,7.30
2018-05-12T00:13:06.890Z,7.80
2018-05-12T00:15:33.289Z,7.17
2018-05-12T00:17:59.745Z,7.90
2018-05-12T00:20:26.260Z,8.50
2018-05-12T00:22:52.872Z,7.63
2018-05-12T00:25:19.358Z,8.37
2018-05-12T00:27:46.470Z,7.33
2018-05-12T00:30:12.870Z,7.77
2018-05-12T00:32:39.246Z,7.60
2018-05-12T00:35:05.682Z,8.37
2018-05-12T00:37:32.077Z,8.37
2018-05-12T00:39:58.685Z,8.80
2018-05-12T00:42:25.090Z,8.73
2018-05-12T00:44:51.603Z,8.40
2018-05-12T00:47:17.958Z,7.70
2018-05-12T00:49:44.660Z,8.70
2018-05-12T00:52:11.018Z,8.30
2018-05-12T00:54:37.494Z,8.10
2018-05-12T00:57:03.840Z,8.50
2018-05-12T00:59:30.205Z,9.30
2018-05-12T01:01:56.521Z,8.40
2018-05-12T01:04:22.873Z,9.23
2018-05-12T01:06:49.235Z,8.00
2018-05-12T01:09:15.603Z,8.20
2018-05-12T01:11:42.084Z,8.20
2018-05-12T01:14:09.469Z,8.87
2018-05-12T01:16:35.927Z,9.50
2018-05-12T01:19:02.672Z,9.10
2018-05-12T01:21:28.961Z,10.10
2018-05-12T01:23:55.295Z,9.10
2018-05-12T01:26:21.677Z,8.60
2018-05-12T01:28:48.296Z,8.73
2018-05-12T01:31:14.635Z,9.10
2018-05-12T01:33:41.723Z,9.53
2018-05-12T01:36:08.809Z,10.20
2018-05-12T01:38:35.156Z,9.60
2018-05-12T01:41:01.680Z,10.50
2018-05-12T01:43:28.052Z,9.90
2018-05-12T01:45:54.499Z,9.77
2018-05-12T01:48:20.918Z,9.70
2018-05-12T01:50:47.339Z,9.30
2018-05-12T01:53:14.399Z,9.07
2018-05-12T01:55:41.509Z,10.57
2018-05-12T01:58:08.592Z,10.13
2018-05-12T02:00:35.945Z,10.70
2018-05-12T02:03:04.207Z,10.47
2018-05-12T02:05:31.632Z,10.50
2018-05-12T02:07:58.181Z,10.83
2018-05-12T02:10:24.613Z,10.70
2018-05-12T02:12:51.076Z,10.97
2018-05-12T02:15:18.184Z,11.07
2018-05-12T02:17:44.593Z,11.50
2018-05-12T02:20:10.994Z,12.40
2018-05-12T02:22:38.126Z,13.50
2018-05-12T02:25:05.341Z,13.40
2018-05-12T02:27:31.795Z,14.00
2018-05-12T02:29:58.306Z,11.17
2018-05-12T02:32:24.675Z,11.87
2018-05-12T02:34:51.794Z,11.93
2018-05-12T02:37:18.143Z,12.90
2018-05-12T02:39:45.306Z,12.63
2018-05-12T02:42:12.461Z,12.40
2018-05-12T02:44:38.915Z,11.93
2018-05-12T02:47:05.367Z,12.80
2018-05-12T02:49:31.823Z,13.17
2018-05-12T02:51:58.301Z,13.17
2018-05-12T02:54:24.729Z,12.00
2018-05-12T02:56:51.229Z,12.73
2018-05-12T02:59:17.563Z,12.70
2018-05-12T03:01:44.015Z,11.90
2018-05-12T03:04:11.041Z,12.80
2018-05-12T03:06:38.388Z,11.30
2018-05-12T03:09:04.733Z,13.17
2018-05-12T03:11:31.168Z,13.40
2018-05-12T03:13:58.305Z,12.47
2018-05-12T03:16:24.724Z,13.67
2018-05-12T03:18:51.061Z,14.40
2018-05-12T03:21:17.633Z,13.80
2018-05-12T03:23:44.139Z,13.40
2018-05-12T03:26:10.586Z,12.90
2018-05-12T03:28:37.586Z,13.20
2018-05-12T03:31:04.118Z,12.90
2018-05-12T03:33:30.527Z,13.97
2018-05-12T03:35:56.871Z,13.30
2018-05-12T03:38:23.210Z,14.37
2018-05-12T03:40:49.586Z,13.20
2018-05-12T03:43:16.810Z,12.93
2018-05-12T03:45:43.348Z,12.10
2018-05-12T03:48:09.673Z,12.07
2018-05-12T03:50:36.003Z,12.40
2018-05-12T03:53:02.576Z,12.57
2018-05-12T03:55:28.921Z,13.00
2018-05-12T03:57:55.426Z,13.30
2018-05-12T04:00:22.524Z,14.00
2018-05-12T04:02:49.007Z,11.87
2018-05-12T04:05:28.423Z,11.93
2018-05-12T04:08:07.333Z,11.90
2018-05-12T04:10:42.534Z,12.30
2018-05-12T04:13:09.006Z,12.30
2018-05-12T04:15:35.475Z,11.87
2018-05-12T04:18:02.584Z,10.43
2018-05-12T04:20:29.007Z,9.73
2018-05-12T04:22:56.493Z,11.07
2018-05-12T04:25:22.849Z,12.70
2018-05-12T04:27:49.250Z,12.90
2018-05-12T04:30:15.806Z,11.90
2018-05-12T04:32:42.874Z,12.10
2018-05-12T04:35:09.382Z,12.13
2018-05-12T04:37:36.595Z,13.37
2018-05-12T04:40:02.930Z,13.50
2018-05-12T04:42:29.368Z,13.67
2018-05-12T04:44:55.741Z,14.10
2018-05-12T04:47:22.262Z,13.73
2018-05-12T04:49:49.421Z,13.83
2018-05-12T04:52:15.796Z,14.40
2018-05-12T04:54:42.442Z,14.90
2018-05-12T04:57:08.908Z,15.63
2018-05-12T04:59:36.054Z,15.40
2018-05-12T05:02:03.227Z,15.53
2018-05-12T05:04:29.585Z,14.97
2018-05-12T05:06:55.937Z,14.77
2018-05-12T05:09:22.465Z,16.00
2018-05-12T05:11:48.899Z,17.43
2018-05-12T05:14:15.368Z,16.00
2018-05-12T05:16:41.791Z,16.37
2018-05-12T05:19:08.305Z,15.43
2018-05-12T05:21:35.471Z,14.97
2018-05-12T05:24:01.764Z,15.80
2018-05-12T05:26:28.202Z,15.60
2018-05-12T05:28:54.727Z,17.73
2018-05-12T05:31:21.378Z,19.10
2018-05-12T05:33:47.749Z,18.60
2018-05-12T05:36:14.957Z,19.00
2018-05-12T05:38:41.334Z,19.00
2018-05-12T05:41:08.949Z,16.47
2018-05-12T05:43:35.467Z,18.67
2018-05-12T05:46:01.912Z,18.50
2018-05-12T05:48:28.392Z,17.27
2018-05-12T05:50:55.851Z,18.80
2018-05-12T05:53:23.056Z,18.40
2018-05-12T05:55:49.486Z,18.70
2018-05-12T05:58:16.021Z,20.00
2018-05-12T06:00:42.500Z,21.00
2018-05-12T06:03:08.884Z,19.07
2018-05-12T06:05:35.838Z,20.30
2018-05-12T06:08:02.373Z,22.57
2018-05-12T06:10:28.792Z,20.57
2018-05-12T06:12:56.224Z,20.40
2018-05-12T06:15:22.677Z,20.80
2018-05-12T06:17:49.297Z,21.70
2018-05-12T06:20:15.893Z,23.10
2018-05-12T06:22:43.037Z,24.40
2018-05-12T06:25:10.347Z,24.00
2018-05-12T06:27:37.228Z,24.73
2018-05-12T06:30:04.481Z,22.63
2018-05-12T06:32:31.886Z,23.80
2018-05-12T06:34:58.272Z,23.13
2018-05-12T06:37:25.379Z,23.17
2018-05-12T06:39:51.755Z,22.50
2018-05-12T06:42:19.126Z,23.50
2018-05-12T06:44:45.580Z,24.77
2018-05-12T06:47:11.889Z,27.07
2018-05-12T06:49:38.473Z,21.77
2018-05-12T06:52:04.984Z,24.87
2018-05-12T06:54:31.531Z,23.83
2018-05-12T06:56:58.006Z,23.10
2018-05-12T06:59:26.190Z,26.30
2018-05-12T07:01:52.684Z,25.67
2018-05-12T07:04:18.976Z,26.60
2018-05-12T07:06:45.401Z,27.43
2018-05-12T07:09:11.773Z,26.43
2018-05-12T07:11:38.261Z,26.47
2018-05-12T07:14:04.725Z,28.20
2018-05-12T07:16:31.162Z,28.47
2018-05-12T07:18:57.592Z,27.60
2018-05-12T07:21:24.016Z,28.03
2018-05-12T07:23:50.401Z,26.97
2018-05-12T07:26:17.710Z,26.73
2018-05-12T07:28:44.128Z,27.90
2018-05-12T07:31:10.526Z,27.23
2018-05-12T07:33:36.952Z,25.87
2018-05-12T07:36:03.372Z,27.87
2018-05-12T07:38:30.555Z,27.07
2018-05-12T07:40:57.228Z,27.17
2018-05-12T07:43:23.672Z,25.57
2018-05-12T07:45:50.205Z,24.13
2018-05-12T07:48:16.662Z,26.17
2018-05-12T07:50:43.847Z,25.30
2018-05-12T07:53:10.241Z,24.40
2018-05-12T07:55:37.458Z,26.10
2018-05-12T07:58:03.948Z,23.50
2018-05-12T08:00:30.525Z,26.07
2018-05-12T08:02:58.102Z,24.70
2018-05-12T08:05:24.537Z,24.93
2018-05-12T08:07:50.858Z,24.83
2018-05-12T08:10:17.384Z,24.33
2018-05-12T08:12:43.892Z,23.10
2018-05-12T08:15:10.682Z,24.67
2018-05-12T08:17:37.223Z,23.57
2018-05-12T08:20:04.489Z,22.03
2018-05-12T08:22:31.589Z,21.40
2018-05-12T08:24:57.904Z,20.73
2018-05-12T08:27:24.337Z,19.77
2018-05-12T08:29:50.890Z,20.57
2018-05-12T08:32:17.280Z,20.87
2018-05-12T08:34:43.687Z,20.57
2018-05-12T08:37:10.823Z,18.90
2018-05-12T08:39:37.239Z,18.30
2018-05-12T08:42:03.768Z,18.53
2018-05-12T08:44:30.184Z,15.73
2018-05-12T08:46:57.498Z,16.87
2018-05-12T08:49:24.801Z,17.30
2018-05-12T08:51:51.298Z,18.27
2018-05-12T08:54:17.752Z,19.70
2018-05-12T08:56:44.125Z,18.03
2018-05-12T08:59:11.281Z,18.80
2018-05-12T09:01:38.476Z,20.50
2018-05-12T09:04:04.948Z,18.83
2018-05-12T09:06:31.466Z,19.07
2018-05-12T09:08:57.902Z,17.80
2018-05-12T09:11:24.494Z,17.30
2018-05-12T09:13:50.867Z,16.40
2018-05-12T09:16:17.225Z,17.37
2018-05-12T09:18:43.525Z,16.90
2018-05-12T09:21:10.268Z,16.50
2018-05-12T09:23:36.809Z,14.87
2018-05-12T09:26:03.142Z,14.23
2018-05-12T09:28:29.650Z,12.00
2018-05-12T09:30:56.024Z,10.83
2018-05-12T09:33:23.206Z,11.10
2018-05-12T09:35:49.641Z,12.10
2018-05-12T09:38:16.383Z,13.17
2018-05-12T09:40:42.823Z,12.90
2018-05-12T09:43:09.610Z,11.50
2018-05-12T09:45:36.129Z,13.57
2018-05-12T09:48:02.575Z,13.63
2018-05-12T09:50:29.024Z,18.10
2018-05-12T09:52:59.310Z,19.67
2018-05-12T09:55:26.461Z,23.40
2018-05-12T09:57:54.020Z,22.10
2018-05-12T10:00:27.602Z,23.70
2018-05-12T10:02:54.284Z,21.37
2018-05-12T10:05:20.711Z,18.00
2018-05-12T10:07:47.940Z,18.47
2018-05-12T10:10:14.421Z,17.07
2018-05-12T10:12:41.720Z,17.77
2018-05-12T10:15:08.163Z,17.60
2018-05-12T10:17:34.673Z,19.40
2018-05-12T10:20:01.112Z,19.77
2018-05-12T10:22:27.902Z,20.93
2018-05-12T10:24:54.972Z,19.90
2018-05-12T10:27:21.447Z,22.53
2018-05-12T10:29:48.022Z,19.50
2018-05-12T10:32:15.339Z,18.97
2018-05-12T10:34:41.866Z,17.80
2018-05-12T10:37:08.551Z,17.90
2018-05-12T10:39:35.618Z,16.60
2018-05-12T10:42:03.097Z,14.77
2018-05-12T10:44:29.582Z,14.37
2018-05-12T10:46:56.753Z,14.57
2018-05-12T10:49:23.437Z,17.03
2018-05-12T10:51:49.888Z,13.83
2018-05-12T10:54:16.176Z,14.00
2018-05-12T10:56:42.542Z,14.93
2018-05-12T10:59:09.017Z,10.90
2018-05-12T11:01:35.665Z,12.80
2018-05-12T11:04:02.093Z,12.10
2018-05-12T11:06:28.464Z,12.30
2018-05-12T11:08:54.903Z,14.90
2018-05-12T11:11:21.291Z,12.87
2018-05-12T11:13:48.061Z,13.60
2018-05-12T11:16:14.597Z,12.30
2018-05-12T11:18:40.867Z,15.40
2018-05-12T11:21:08.025Z,15.50
2018-05-12T11:23:35.444Z,14.43
2018-05-12T11:26:01.982Z,13.43
2018-05-12T11:28:28.311Z,11.03
2018-05-12T11:30:54.944Z,14.13
2018-05-12T11:33:21.269Z,12.57
2018-05-12T11:35:47.623Z,13.80
2018-05-12T11:38:14.180Z,16.33
2018-05-12T11:40:40.799Z,14.30
2018-05-12T11:43:08.018Z,13.70
2018-05-12T11:45:34.518Z,14.33
2018-05-12T11:48:00.920Z,12.90
2018-05-12T11:50:28.463Z,14.67
2018-05-12T11:52:54.974Z,13.20
2018-05-12T11:55:21.333Z,14.03
2018-05-12T11:57:47.763Z,15.40
2018-05-12T12:00:14.213Z,15.77
2018-05-12T12:02:41.285Z,14.70
2018-05-12T12:05:07.878Z,13.80
2018-05-12T12:07:34.984Z,14.30
2018-05-12T12:10:01.487Z,14.80
2018-05-12T12:12:27.967Z,14.00
2018-05-12T12:14:54.910Z,12.63
2018-05-12T12:17:21.254Z,10.50
2018-05-12T12:19:47.588Z,11.83
2018-05-12T12:22:13.967Z,12.33
2018-05-12T12:24:40.305Z,12.87
2018-05-12T12:27:07.731Z,16.10
2018-05-12T12:29:34.944Z,13.27
2018-05-12T12:32:01.404Z,14.93
2018-05-12T12:34:27.806Z,13.27
2018-05-12T12:36:54.252Z,14.23
2018-05-12T12:39:20.610Z,12.57
2018-05-12T12:41:47.875Z,11.67
2018-05-12T12:44:14.299Z,12.33
2018-05-12T12:46:41.517Z,11.13
2018-05-12T12:49:07.925Z,10.90
2018-05-12T12:51:35.003Z,12.03
2018-05-12T12:54:01.590Z,12.00
2018-05-12T12:56:28.334Z,11.77
2018-05-12T12:58:54.696Z,11.73
2018-05-12T13:01:21.141Z,11.03
2018-05-12T13:03:47.481Z,11.70
2018-05-12T13:06:13.822Z,11.43
2018-05-12T13:08:41.013Z,13.97
2018-05-12T13:11:07.337Z,15.80
2018-05-12T13:13:33.745Z,15.10
2018-05-12T13:16:00.271Z,16.90
2018-05-12T13:18:26.641Z,17.07
2018-05-12T13:20:53.052Z,16.37
2018-05-12T13:23:19.477Z,15.80
2018-05-12T13:25:46.619Z,15.63
2018-05-12T13:28:13.754Z,14.87
2018-05-12T13:30:40.205Z,12.93
2018-05-12T13:33:07.465Z,15.87
2018-05-12T13:35:33.913Z,13.57
2018-05-12T13:38:00.325Z,14.90
2018-05-12T13:40:26.874Z,12.70
2018-05-12T13:42:53.925Z,13.40
2018-05-12T13:45:20.443Z,12.20
2018-05-12T13:47:47.585Z,12.60
2018-05-12T13:50:14.798Z,10.43
2018-05-12T13:52:41.347Z,12.67
2018-05-12T13:55:07.865Z,12.30
2018-05-12T13:57:34.246Z,13.63
2018-05-12T14:00:01.562Z,13.13
2018-05-12T14:02:28.121Z,14.00
2018-05-12T14:04:55.289Z,13.70
2018-05-12T14:07:21.955Z,14.07
2018-05-12T14:09:48.302Z,16.67
2018-05-12T14:12:14.764Z,16.83
2018-05-12T14:14:41.316Z,15.90
2018-05-12T14:17:08.474Z,13.90
2018-05-12T14:19:34.864Z,12.90
2018-05-12T14:22:01.292Z,15.53
2018-05-12T14:24:27.832Z,16.63
2018-05-12T14:26:54.250Z,18.97
2018-05-12T14:29:20.715Z,18.27
2018-05-12T14:31:47.926Z,16.40
2018-05-12T14:34:14.388Z,17.10
2018-05-12T14:36:40.807Z,18.17
2018-05-12T14:39:07.573Z,20.40
2018-05-12T14:41:35.376Z,19.97
2018-05-12T14:44:01.773Z,17.50
2018-05-12T14:46:28.838Z,17.30
2018-05-12T14:48:55.172Z,17.13
2018-05-12T14:51:21.543Z,16.27
2018-05-12T14:53:48.109Z,16.77
2018-05-12T14:56:14.563Z,18.00
2018-05-12T14:58:41.637Z,17.37
2018-05-12T15:01:08.225Z,15.40
2018-05-12T15:03:34.684Z,17.70
2018-05-12T15:06:01.430Z,17.87
2018-05-12T15:08:27.953Z,16.20
2018-05-12T15:10:55.152Z,13.80
2018-05-12T15:13:22.456Z,14.83
2018-05-12T15:15:48.943Z,14.30
2018-05-12T15:18:15.283Z,15.20
2018-05-12T15:20:41.664Z,14.30
2018-05-12T15:23:08.178Z,15.63
2018-05-12T15:25:35.325Z,16.50
2018-05-12T15:28:02.444Z,16.37
2018-05-12T15:30:28.887Z,14.30
2018-05-12T15:32:55.357Z,14.57
2018-05-12T15:35:21.675Z,15.73
2018-05-12T15:37:48.928Z,15.87
2018-05-12T15:40:16.012Z,16.17
2018-05-12T15:42:42.380Z,16.30
2018-05-12T15:45:08.848Z,15.93
2018-05-12T15:47:35.331Z,15.40
2018-05-12T15:50:01.931Z,16.13
2018-05-12T15:52:28.385Z,18.07
2018-05-12T15:54:54.789Z,14.80
2018-05-12T15:57:22.129Z,16.43
2018-05-12T15:59:48.540Z,15.77
2018-05-12T16:02:14.857Z,15.73
2018-05-12T16:04:41.392Z,16.17
2018-05-12T16:07:07.755Z,13.77
2018-05-12T16:09:34.884Z,14.00
2018-05-12T16:12:01.506Z,14.10
2018-05-12T16:14:28.822Z,13.90
2018-05-12T16:16:55.476Z,14.00
2018-05-12T16:19:22.013Z,13.10
2018-05-12T16:21:48.456Z,14.00
2018-05-12T16:24:14.941Z,12.70
2018-05-12T16:26:41.566Z,14.27
2018-05-12T16:29:08.880Z,16.50
2018-05-12T16:31:35.827Z,14.40
2018-05-12T16:34:02.360Z,14.13
2018-05-12T16:36:28.715Z,14.20
2018-05-12T16:38:55.953Z,14.50
2018-05-12T16:41:22.466Z,14.77
2018-05-12T16:43:50.131Z,16.33
2018-05-12T16:46:16.875Z,15.43
2018-05-12T16:48:43.507Z,14.73
2018-05-12T16:51:09.987Z,17.57
2018-05-12T16:53:36.333Z,14.47
2018-05-12T16:56:02.942Z,12.90
2018-05-12T16:58:29.440Z,30.77
2018-05-12T17:00:55.805Z,16.60
2018-05-12T17:03:22.166Z,14.30
2018-05-12T17:05:48.628Z,15.30
2018-05-12T17:08:15.034Z,16.77
2018-05-12T17:10:41.496Z,15.20
2018-05-12T17:13:07.877Z,14.63
2018-05-12T17:15:35.456Z,14.10
2018-05-12T17:18:01.932Z,15.40
2018-05-12T17:20:28.523Z,15.40
2018-05-12T17:22:54.920Z,14.40
2018-05-12T17:25:21.365Z,18.20
2018-05-12T17:27:48.693Z,18.90
2018-05-12T17:30:15.429Z,19.63
2018-05-12T17:32:41.807Z,17.60
2018-05-12T17:35:08.921Z,19.20
2018-05-12T17:37:35.415Z,19.17
2018-05-12T17:40:02.003Z,20.53
2018-05-12T17:42:29.226Z,20.03
2018-05-12T17:44:55.619Z,19.20
2018-05-12T17:47:22.068Z,18.03
2018-05-12T17:49:48.533Z,18.80
2018-05-12T17:52:14.983Z,19.63
2018-05-12T17:54:42.169Z,18.00
2018-05-12T17:57:08.579Z,19.07
2018-05-12T17:59:35.733Z,18.07
2018-05-12T18:02:03.166Z,18.37
2018-05-12T18:04:29.706Z,17.40
2018-05-12T18:06:56.453Z,19.00
2018-05-12T18:09:23.698Z,20.10
2018-05-12T18:11:50.974Z,20.93
2018-05-12T18:14:17.552Z,21.30
2018-05-12T18:16:44.111Z,20.40
2018-05-12T18:19:10.465Z,19.63
2018-05-12T18:21:37.955Z,21.07
2018-05-12T18:24:04.427Z,23.13
2018-05-12T18:26:30.847Z,22.37
2018-05-12T18:28:57.422Z,21.83
2018-05-12T18:31:24.842Z,23.50
2018-05-12T18:33:51.300Z,24.23
2018-05-12T18:36:18.496Z,23.87
2018-05-12T18:38:45.086Z,24.00
2018-05-12T18:41:12.361Z,24.20
2018-05-12T18:43:39.500Z,23.33
2018-05-12T18:46:06.687Z,24.60
2018-05-12T18:48:33.765Z,23.90
2018-05-12T18:51:00.337Z,24.43
2018-05-12T18:53:27.448Z,23.10
2018-05-12T18:55:53.868Z,25.23
2018-05-12T18:58:20.271Z,24.97
2018-05-12T19:00:46.801Z,25.57
2018-05-12T19:03:13.380Z,24.77
2018-05-12T19:05:39.858Z,25.70
2018-05-12T19:08:06.338Z,25.17
2018-05-12T19:10:32.664Z,24.63
2018-05-12T19:13:00.123Z,23.83
2018-05-12T19:15:26.557Z,25.30
2018-05-12T19:17:53.739Z,23.90
2018-05-12T19:20:20.932Z,24.90
2018-05-12T19:22:47.369Z,23.63
2018-05-12T19:25:13.856Z,23.40
2018-05-12T19:27:40.347Z,22.80
2018-05-12T19:30:06.836Z,21.07
2018-05-12T19:32:34.045Z,21.70
2018-05-12T19:35:00.414Z,21.93
2018-05-12T19:37:27.695Z,22.07
2018-05-12T19:39:54.136Z,20.13
2018-05-12T19:42:20.510Z,21.53
2018-05-12T19:44:46.857Z,21.90
2018-05-12T19:47:14.279Z,22.87
2018-05-12T19:49:40.856Z,21.70
2018-05-12T19:52:08.142Z,22.37
2018-05-12T19:54:34.503Z,22.47
2018-05-12T19:57:01.076Z,21.67
2018-05-12T19:59:28.345Z,21.93
2018-05-12T20:01:54.712Z,20.87
2018-05-12T20:04:21.122Z,22.70
2018-05-12T20:06:47.641Z,22.20
2018-05-12T20:09:14.133Z,22.80
2018-05-12T20:11:41.465Z,22.00
2018-05-12T20:14:07.845Z,20.97
2018-05-12T20:16:34.951Z,21.40
2018-05-12T20:19:01.393Z,20.90
2018-05-12T20:21:27.871Z,20.17
2018-05-12T20:23:55.248Z,20.47
2018-05-12T20:26:21.669Z,19.77
2018-05-12T20:28:48.344Z,20.53
2018-05-12T20:31:15.084Z,20.57
2018-05-12T20:33:41.456Z,20.13
2018-05-12T20:36:08.729Z,19.23
2018-05-12T20:38:36.216Z,19.90
2018-05-12T20:41:02.712Z,19.37
2018-05-12T20:43:29.060Z,22.53
2018-05-12T20:45:55.459Z,18.63
2018-05-12T20:48:22.763Z,19.83
2018-05-12T20:50:49.298Z,22.30
2018-05-12T20:53:15.786Z,21.90
2018-05-12T20:55:42.586Z,20.10
2018-05-12T20:58:08.887Z,20.03
2018-05-12T21:00:35.697Z,20.73
2018-05-12T21:03:02.143Z,19.83
2018-05-12T21:05:28.519Z,20.50
2018-05-12T21:07:56.182Z,19.50
2018-05-12T21:10:22.682Z,18.80
2018-05-12T21:12:49.232Z,21.80
2018-05-12T21:15:15.694Z,19.30
2018-05-12T21:17:42.231Z,20.70
2018-05-12T21:20:09.519Z,17.77
2018-05-12T21:22:36.014Z,20.43
2018-05-12T21:25:02.942Z,20.43
2018-05-12T21:27:29.347Z,19.17
2018-05-12T21:29:55.817Z,19.67
2018-05-12T21:32:22.289Z,19.43
2018-05-12T21:34:48.616Z,19.63
2018-05-12T21:37:15.036Z,20.27
2018-05-12T21:39:41.568Z,20.80
2018-05-12T21:42:08.008Z,21.07
2018-05-12T21:44:35.262Z,21.03
2018-05-12T21:47:02.356Z,21.50
2018-05-12T21:49:28.790Z,20.00
2018-05-12T21:51:55.215Z,20.47
2018-05-12T21:54:21.755Z,22.00
2018-05-12T21:56:49.008Z,19.47
2018-05-12T21:59:15.491Z,19.43
2018-05-12T22:01:42.730Z,19.80
2018-05-12T22:04:09.224Z,18.37
2018-05-12T22:06:36.617Z,18.30
2018-05-12T22:09:03.785Z,18.70
2018-05-12T22:11:30.368Z,18.37
2018-05-12T22:13:57.268Z,19.67
2018-05-12T22:16:23.750Z,19.13
2018-05-12T22:18:50.163Z,19.00
2018-05-12T22:21:16.819Z,19.80
2018-05-12T22:23:43.166Z,18.33
2018-05-12T22:26:10.232Z,17.87
2018-05-12T22:28:37.379Z,18.27
2018-05-12T22:31:04.564Z,19.33
2018-05-12T22:33:30.948Z,17.93
2018-05-12T22:35:57.297Z,17.37
2018-05-12T22:38:24.598Z,18.90
2018-05-12T22:40:50.996Z,18.57
2018-05-12T22:43:17.436Z,19.00
2018-05-12T22:45:44.009Z,18.87
2018-05-12T22:48:10.476Z,18.73
2018-05-12T22:50:37.618Z,18.33
2018-05-12T22:53:05.212Z,17.27
2018-05-12T22:55:31.806Z,17.20
2018-05-12T22:57:58.209Z,16.77
2018-05-12T23:00:27.712Z,18.13
2018-05-12T23:02:54.403Z,17.47
2018-05-12T23:05:20.777Z,16.07
2018-05-12T23:07:47.179Z,16.07
2018-05-12T23:10:13.774Z,15.67
2018-05-12T23:12:40.974Z,16.30
2018-05-12T23:15:07.740Z,17.43
2018-05-12T23:17:34.100Z,14.20
2018-05-12T23:20:00.514Z,15.80
2018-05-12T23:22:27.046Z,17.30
2018-05-12T23:24:55.303Z,16.47
2018-05-12T23:27:22.368Z,16.90
2018-05-12T23:29:48.791Z,16.67
2018-05-12T23:32:15.115Z,17.20
2018-05-12T23:34:41.679Z,18.10
2018-05-12T23:37:07.990Z,16.60
2018-05-12T23:39:34.400Z,17.30
2018-05-12T23:42:00.954Z,17.27
2018-05-12T23:44:27.391Z,16.10
2018-05-12T23:46:53.957Z,15.40
2018-05-12T23:49:21.373Z,16.33
2018-05-12T23:51:47.905Z,15.43
2018-05-12T23:54:14.302Z,15.37
2018-05-12T23:56:40.628Z,17.13
2018-05-12T23:59:07.102Z,15.30
